Sign-in with your pilot id or email, or register

ICAO: ENGM Name / Country: Oslo/Gardermoen / Norway
Latitude: 60.1939 Longitude: 11.1004
Total Arrivals:
Strict Standards: Non-static method AirportData::getarrflights() should not be called statically, assuming $this from incompatible context in /var/www/customers/vh-7192/web/home/phpvms/core/templates/airport_info.tpl on line 18
0
Total Departures:
Strict Standards: Non-static method AirportData::getdeptflights() should not be called statically, assuming $this from incompatible context in /var/www/customers/vh-7192/web/home/phpvms/core/templates/airport_info.tpl on line 21
2
Latest Arrival: (-) Latest Departure: 2131 (ENGM-ESSA) Laszlo Bartucz
Metar: ENGM 192050Z 21007KT 9999 FEW025 SCT090 12/11 Q1006 NOSIG
More info

Charts for ENGM


NOTAM


Warning: file_get_contents(http://api.vateud.net/notams/ENGM.json): failed to open stream: Redirection limit reached, aborting in /var/www/customers/vh-7192/web/home/phpvms/core/common/NOTAMSData.class.php on line 18

Warning: Invalid argument supplied for foreach() in /var/www/customers/vh-7192/web/home/phpvms/core/common/NOTAMSData.class.php on line 22

Oslo/Gardermoen